Time;durP1;ratioP1;P1;durP2;ratioP2;P2;SDS_P1;SDS_P2;PMS_P1;PMS_P2;Temp;Humidity;BMP_temperature;BMP_pressure;BME280_temperature;BME280_humidity;BME280_pressure;Samples;Min_cycle;Max_cycle;Signal;HPM_P1;HPM_P2
2023/09/13 00:02:05;;;;;;;26.10;23.30;;;22.80;99.90;;;;;;5023314;28;20559;-64
2023/09/13 00:04:30;;;;;;;24.30;22.00;;;22.80;99.90;;;;;;5031833;28;20170;-63
2023/09/13 00:06:56;;;;;;;24.40;22.00;;;22.80;99.90;;;;;;5016656;28;20398;-63
2023/09/13 00:09:22;;;;;;;23.50;21.07;;;22.80;99.90;;;;;;5012004;28;20187;-63
2023/09/13 00:11:48;;;;;;;25.93;23.37;;;22.80;99.90;;;;;;5013264;28;20600;-62
2023/09/13 00:14:13;;;;;;;23.93;21.53;;;22.80;99.90;;;;;;5011286;28;20183;-63
2023/09/13 00:16:39;;;;;;;23.50;21.20;;;22.90;99.90;;;;;;5012550;28;20642;-64
2023/09/13 00:19:06;;;;;;;20.70;18.60;;;22.90;99.90;;;;;;5011687;28;20612;-63
2023/09/13 00:21:32;;;;;;;21.00;19.00;;;22.90;99.90;;;;;;5015150;28;20509;-70
2023/09/13 00:23:58;;;;;;;21.80;19.37;;;22.90;99.90;;;;;;5012696;28;20429;-63
2023/09/13 00:26:24;;;;;;;21.40;19.10;;;22.90;99.90;;;;;;5010422;28;20446;-63
2023/09/13 00:28:50;;;;;;;23.03;20.60;;;22.80;99.90;;;;;;5011171;28;20422;-64
2023/09/13 00:31:16;;;;;;;21.33;18.47;;;22.80;99.90;;;;;;5013658;28;20464;-63
2023/09/13 00:33:42;;;;;;;20.73;18.63;;;22.80;99.90;;;;;;5012602;28;20175;-64
2023/09/13 00:36:08;;;;;;;20.43;18.50;;;22.80;99.90;;;;;;5011947;28;20433;-64
2023/09/13 00:38:33;;;;;;;19.90;17.70;;;22.80;99.90;;;;;;5010448;28;20300;-64
2023/09/13 00:40:59;;;;;;;18.03;16.23;;;22.80;99.90;;;;;;5012918;28;20252;-63
2023/09/13 00:43:25;;;;;;;18.93;17.13;;;22.70;99.90;;;;;;5011624;28;20370;-63
2023/09/13 00:45:52;;;;;;;19.10;17.20;;;22.70;99.90;;;;;;5011678;28;20183;-64
2023/09/13 00:48:18;;;;;;;20.27;18.00;;;22.70;99.90;;;;;;5011434;28;20420;-63
2023/09/13 00:50:46;;;;;;;22.53;20.13;;;22.70;99.90;;;;;;5012678;28;21083;-64
2023/09/13 00:53:13;;;;;;;22.13;19.73;;;22.70;99.90;;;;;;5011703;28;20568;-63
2023/09/13 00:55:41;;;;;;;25.00;22.40;;;22.70;99.90;;;;;;5009346;28;20402;-64
2023/09/13 00:58:07;;;;;;;25.20;22.60;;;22.60;99.90;;;;;;5010506;28;20410;-64
2023/09/13 01:00:34;;;;;;;23.77;21.33;;;22.60;99.90;;;;;;5010829;28;20535;-63
2023/09/13 01:03:01;;;;;;;26.83;22.87;;;22.60;99.90;;;;;;5013205;28;20179;-64
2023/09/13 01:05:28;;;;;;;25.73;23.17;;;22.60;99.90;;;;;;5010711;28;20414;-64
2023/09/13 01:07:53;;;;;;;26.00;23.23;;;22.60;99.90;;;;;;5013430;28;20476;-64
2023/09/13 01:10:19;;;;;;;26.97;24.23;;;22.60;99.90;;;;;;5015098;28;20410;-64
2023/09/13 01:12:46;;;;;;;30.53;25.00;;;22.60;99.90;;;;;;5016645;28;20242;-64
2023/09/13 01:15:12;;;;;;;28.93;26.00;;;22.50;99.90;;;;;;5015492;28;20631;-59
2023/09/13 01:18:08;;;;;;;28.80;25.90;;;22.50;99.90;;;;;;5015715;28;20892;-64
2023/09/13 01:21:15;;;;;;;28.63;24.17;;;22.50;99.90;;;;;;5015369;28;20830;-63
2023/09/13 01:23:52;;;;;;;28.77;25.93;;;22.50;99.90;;;;;;4955377;28;20422;-64
2023/09/13 01:26:36;;;;;;;28.60;25.70;;;22.40;99.90;;;;;;4989667;28;20468;-64
2023/09/13 01:29:04;;;;;;;28.00;25.17;;;22.50;99.90;;;;;;5015452;28;20770;-64
2023/09/13 01:31:31;;;;;;;29.30;26.20;;;22.40;99.90;;;;;;5021766;28;20421;-64
2023/09/13 01:33:56;;;;;;;30.93;27.60;;;22.40;99.90;;;;;;5027769;28;20523;-63
2023/09/13 01:36:22;;;;;;;29.07;25.93;;;22.40;99.90;;;;;;5014917;28;20402;-64
2023/09/13 01:38:48;;;;;;;32.23;26.83;;;22.50;99.90;;;;;;5014261;28;20809;-63
2023/09/13 01:41:22;;;;;;;30.10;26.97;;;22.40;99.90;;;;;;5010914;28;20203;-63
2023/09/13 01:43:53;;;;;;;29.70;26.53;;;22.40;99.90;;;;;;4995944;28;20412;-63
2023/09/13 01:46:20;;;;;;;31.70;28.30;;;22.40;99.90;;;;;;5012323;28;20789;-64
2023/09/13 01:48:46;;;;;;;32.23;28.13;;;22.40;99.90;;;;;;5014160;28;20771;-63
2023/09/13 01:51:13;;;;;;;36.37;30.43;;;22.40;99.90;;;;;;5019233;28;20471;-62
2023/09/13 01:53:45;;;;;;;29.47;26.30;;;22.40;99.90;;;;;;5034741;28;20425;-63
2023/09/13 01:56:11;;;;;;;30.63;27.33;;;22.40;99.90;;;;;;5028149;28;20422;-59
2023/09/13 01:58:37;;;;;;;35.90;29.87;;;22.40;99.90;;;;;;5013681;28;20917;-64
2023/09/13 02:01:03;;;;;;;33.70;30.10;;;22.40;99.90;;;;;;5018713;28;20479;-64
2023/09/13 02:03:29;;;;;;;33.67;30.07;;;22.40;99.90;;;;;;5034239;28;20183;-63
2023/09/13 02:05:54;;;;;;;34.67;30.83;;;22.40;99.90;;;;;;5034672;28;20170;-64
2023/09/13 02:08:20;;;;;;;35.30;30.57;;;22.40;99.90;;;;;;5033905;28;20167;-65
2023/09/13 02:10:49;;;;;;;35.57;30.60;;;22.40;99.90;;;;;;5028875;28;20178;-64
2023/09/13 02:13:15;;;;;;;39.87;33.50;;;22.40;99.90;;;;;;5013607;28;20210;-63
2023/09/13 02:15:43;;;;;;;38.27;31.80;;;22.40;99.90;;;;;;5014857;28;20405;-65
2023/09/13 02:18:09;;;;;;;36.87;30.33;;;22.40;99.90;;;;;;5014640;28;20410;-65
2023/09/13 02:20:34;;;;;;;39.97;32.90;;;22.40;99.90;;;;;;5014378;28;20190;-64
2023/09/13 02:23:00;;;;;;;40.13;32.97;;;22.40;99.90;;;;;;5034122;28;20645;-64
2023/09/13 02:25:26;;;;;;;36.00;31.47;;;22.40;99.90;;;;;;5030656;28;20557;-64
2023/09/13 02:27:52;;;;;;;36.60;31.83;;;22.40;99.90;;;;;;5010689;28;20650;-64
2023/09/13 02:30:17;;;;;;;36.80;32.90;;;22.40;99.90;;;;;;5013553;28;20218;-63
2023/09/13 02:32:43;;;;;;;35.97;31.80;;;22.40;99.90;;;;;;5031990;28;20579;-63
2023/09/13 02:35:09;;;;;;;39.17;35.00;;;22.40;99.90;;;;;;5034408;28;20201;-63
2023/09/13 02:37:35;;;;;;;38.63;33.67;;;22.40;99.90;;;;;;5033156;28;20725;-63
2023/09/13 02:40:01;;;;;;;39.57;33.47;;;22.40;99.90;;;;;;5028215;28;20782;-63
2023/09/13 02:42:27;;;;;;;39.07;31.70;;;22.40;99.90;;;;;;4996759;28;20576;-63
2023/09/13 02:44:53;;;;;;;38.37;33.23;;;22.40;99.90;;;;;;5014292;28;20187;-64
2023/09/13 02:47:19;;;;;;;34.07;30.37;;;22.40;99.90;;;;;;5013481;28;20421;-64
2023/09/13 02:49:45;;;;;;;32.93;29.37;;;22.40;99.90;;;;;;5014468;28;20210;-64
2023/09/13 02:52:10;;;;;;;32.87;29.57;;;22.40;99.90;;;;;;5026879;28;20648;-64
2023/09/13 02:54:36;;;;;;;33.23;29.70;;;22.40;99.90;;;;;;5033589;28;20649;-64
2023/09/13 02:57:02;;;;;;;31.50;28.20;;;22.40;99.90;;;;;;5018279;28;20266;-64
2023/09/13 02:59:27;;;;;;;31.23;28.03;;;22.40;99.90;;;;;;5013124;28;20175;-63
2023/09/13 03:01:53;;;;;;;31.80;28.50;;;22.40;99.90;;;;;;5020671;28;20241;-63
2023/09/13 03:04:19;;;;;;;29.53;26.47;;;22.40;99.90;;;;;;5013370;28;20270;-64
2023/09/13 03:06:45;;;;;;;31.07;27.77;;;22.40;99.90;;;;;;5013976;28;20889;-63
2023/09/13 03:09:10;;;;;;;28.67;25.83;;;22.40;99.90;;;;;;5012068;28;20190;-63
2023/09/13 03:11:36;;;;;;;29.40;26.27;;;22.40;99.90;;;;;;5013581;28;20710;-63
2023/09/13 03:14:03;;;;;;;28.57;25.57;;;22.40;99.90;;;;;;5012859;28;20181;-64
2023/09/13 03:16:29;;;;;;;27.77;24.83;;;22.40;99.90;;;;;;5013203;28;20171;-64
2023/09/13 03:18:55;;;;;;;26.43;23.70;;;22.40;99.90;;;;;;5013527;28;20402;-64
2023/09/13 03:21:21;;;;;;;25.17;22.67;;;22.30;99.90;;;;;;5018959;28;20216;-63
2023/09/13 03:23:48;;;;;;;26.13;23.53;;;22.40;99.90;;;;;;5033348;28;20441;-64
2023/09/13 03:26:17;;;;;;;24.90;22.30;;;22.30;99.90;;;;;;5023403;28;20662;-63
2023/09/13 03:28:45;;;;;;;23.63;21.27;;;22.30;99.90;;;;;;5013632;28;20410;-64
2023/09/13 03:31:16;;;;;;;23.93;21.53;;;22.30;99.90;;;;;;5016724;28;20487;-64
2023/09/13 03:33:43;;;;;;;25.87;21.10;;;22.30;99.90;;;;;;5017170;28;20473;-63
2023/09/13 03:36:10;;;;;;;21.57;19.37;;;22.30;99.90;;;;;;5013368;28;20409;-63
2023/09/13 03:38:39;;;;;;;26.27;20.33;;;22.20;99.90;;;;;;5012519;28;20484;-64
2023/09/13 03:41:10;;;;;;;23.00;20.57;;;22.30;99.90;;;;;;5014099;28;20410;-64
2023/09/13 03:43:36;;;;;;;24.30;21.70;;;22.30;99.90;;;;;;5012732;28;20765;-65
2023/09/13 03:46:03;;;;;;;21.90;19.60;;;22.30;99.90;;;;;;5013282;28;20406;-64
2023/09/13 03:48:34;;;;;;;23.77;21.17;;;22.30;99.90;;;;;;5012437;28;20489;-65
2023/09/13 03:51:00;;;;;;;25.90;21.30;;;22.30;99.90;;;;;;5016190;28;20401;-65
2023/09/13 03:53:26;;;;;;;25.23;21.23;;;22.30;99.90;;;;;;5016080;28;20976;-65
2023/09/13 03:55:54;;;;;;;31.90;24.67;;;22.30;99.90;;;;;;5011780;28;20433;-65
2023/09/13 03:58:21;;;;;;;29.43;23.70;;;22.20;99.90;;;;;;5012375;28;20870;-65
2023/09/13 04:00:47;;;;;;;28.83;25.50;;;22.20;99.90;;;;;;5013513;28;20831;-64
2023/09/13 04:03:15;;;;;;;31.57;26.43;;;22.20;99.90;;;;;;5012475;28;20417;-62
2023/09/13 04:05:41;;;;;;;32.30;28.40;;;22.20;99.90;;;;;;5012945;28;20414;-65
2023/09/13 04:08:06;;;;;;;29.40;25.37;;;22.20;99.90;;;;;;5012574;28;20829;-65
2023/09/13 04:10:32;;;;;;;33.20;25.27;;;22.20;99.90;;;;;;5012017;28;20469;-64
2023/09/13 04:12:58;;;;;;;33.70;29.07;;;22.20;99.90;;;;;;5012193;28;20640;-64
2023/09/13 04:15:24;;;;;;;43.50;32.30;;;22.10;99.90;;;;;;5012266;28;20225;-66
2023/09/13 04:17:51;;;;;;;38.90;30.63;;;22.20;99.90;;;;;;5011601;28;20964;-65
2023/09/13 04:20:16;;;;;;;35.97;28.77;;;22.20;99.90;;;;;;5010722;28;20918;-64
2023/09/13 04:22:42;;;;;;;37.67;30.27;;;22.20;99.90;;;;;;5030093;28;20508;-65
2023/09/13 04:25:09;;;;;;;38.10;30.97;;;22.20;99.90;;;;;;5029032;28;20199;-65
2023/09/13 04:27:34;;;;;;;41.40;31.33;;;22.20;99.90;;;;;;5010825;28;20183;-65
2023/09/13 04:30:00;;;;;;;36.77;30.70;;;22.20;99.90;;;;;;5011041;28;20480;-65
2023/09/13 04:32:26;;;;;;;41.43;32.20;;;22.10;99.90;;;;;;5026886;28;20214;-66
2023/09/13 04:34:53;;;;;;;45.73;34.53;;;22.10;99.90;;;;;;5008861;28;20685;-68
2023/09/13 04:37:19;;;;;;;42.20;32.20;;;22.10;99.90;;;;;;5011189;28;20906;-67
2023/09/13 04:39:45;;;;;;;39.47;30.70;;;22.00;99.90;;;;;;5011914;28;20530;-67
2023/09/13 04:42:12;;;;;;;44.90;32.80;;;22.00;99.90;;;;;;5014211;28;20469;-67
2023/09/13 04:44:38;;;;;;;39.10;31.77;;;22.00;99.90;;;;;;5016733;28;20436;-66
2023/09/13 04:47:04;;;;;;;42.17;32.43;;;22.00;99.90;;;;;;5014893;28;20910;-67
2023/09/13 04:49:29;;;;;;;40.03;31.20;;;22.00;99.90;;;;;;5015581;28;20171;-67
2023/09/13 04:51:57;;;;;;;42.33;33.17;;;22.10;99.90;;;;;;5026985;28;20461;-67
2023/09/13 04:54:23;;;;;;;39.93;31.73;;;22.10;99.90;;;;;;5022546;28;20617;-67
2023/09/13 04:56:50;;;;;;;44.90;35.00;;;22.10;99.90;;;;;;5015009;28;20504;-67
2023/09/13 04:59:16;;;;;;;41.83;32.13;;;22.10;99.90;;;;;;5015730;28;20413;-66
2023/09/13 05:01:42;;;;;;;37.03;29.70;;;22.10;99.90;;;;;;5024241;28;20976;-67
2023/09/13 05:04:07;;;;;;;43.53;33.90;;;22.10;99.90;;;;;;5036022;28;20484;-67
2023/09/13 05:06:33;;;;;;;42.50;32.43;;;22.10;99.90;;;;;;5029728;28;20517;-67
2023/09/13 05:08:59;;;;;;;40.43;32.03;;;22.10;99.90;;;;;;5015922;28;20607;-65
2023/09/13 05:11:25;;;;;;;39.43;32.67;;;22.10;99.90;;;;;;5014715;28;20817;-70
2023/09/13 05:14:07;;;;;;;41.27;32.63;;;22.10;99.90;;;;;;5015262;28;20202;-70
2023/09/13 05:16:33;;;;;;;40.97;33.87;;;22.10;99.90;;;;;;5013526;28;20221;-64
2023/09/13 05:18:58;;;;;;;42.03;32.47;;;22.10;99.90;;;;;;5006232;28;20409;-63
2023/09/13 05:21:24;;;;;;;42.17;34.03;;;22.10;99.90;;;;;;5021811;28;20178;-67
2023/09/13 05:23:50;;;;;;;40.87;32.53;;;22.10;99.90;;;;;;5018958;28;20624;-67
2023/09/13 05:26:15;;;;;;;41.30;31.33;;;22.10;99.90;;;;;;5007569;28;20187;-70
2023/09/13 05:28:42;;;;;;;42.13;32.07;;;22.10;99.90;;;;;;5004442;28;20175;-69
2023/09/13 05:31:07;;;;;;;41.23;32.77;;;22.20;99.90;;;;;;5009087;28;20678;-69
2023/09/13 05:33:34;;;;;;;41.37;32.83;;;22.20;99.90;;;;;;5022588;28;20544;-69
2023/09/13 05:36:00;;;;;;;41.03;33.70;;;22.20;99.90;;;;;;5007225;28;20202;-69
2023/09/13 05:38:26;;;;;;;39.63;33.97;;;22.10;99.90;;;;;;4994855;28;20459;-69
2023/09/13 05:40:52;;;;;;;41.67;33.00;;;22.10;99.90;;;;;;5011950;28;20425;-69
2023/09/13 05:43:17;;;;;;;38.63;33.00;;;22.10;99.90;;;;;;5012588;28;20517;-67
2023/09/13 05:45:43;;;;;;;42.10;31.80;;;22.10;99.90;;;;;;5015287;28;20183;-69
2023/09/13 05:48:09;;;;;;;42.60;33.27;;;21.90;99.90;;;;;;5015223;28;20228;-69
2023/09/13 05:50:34;;;;;;;40.60;34.10;;;21.90;99.90;;;;;;5014790;28;20273;-68
2023/09/13 05:53:00;;;;;;;40.83;33.10;;;21.90;99.90;;;;;;5014898;28;20215;-69
2023/09/13 05:55:26;;;;;;;44.93;33.70;;;21.80;99.90;;;;;;5012955;28;20186;-69
2023/09/13 05:57:52;;;;;;;39.23;30.43;;;21.70;99.90;;;;;;5013296;28;20182;-68
2023/09/13 06:00:19;;;;;;;39.10;32.20;;;21.70;99.90;;;;;;5010957;28;20910;-69
2023/09/13 06:02:44;;;;;;;381.23;326.27;;;21.70;99.90;;;;;;5025923;28;20190;-64
2023/09/13 06:05:13;;;;;;;82.83;61.60;;;21.80;99.90;;;;;;5014385;28;20425;-62
2023/09/13 06:07:38;;;;;;;45.30;34.60;;;21.70;99.90;;;;;;5014139;28;20421;-59
2023/09/13 06:10:05;;;;;;;53.00;41.47;;;21.70;99.90;;;;;;5014095;28;20211;-57
2023/09/13 06:12:31;;;;;;;40.70;33.50;;;21.60;99.90;;;;;;5013837;28;20231;-57
2023/09/13 06:14:59;;;;;;;38.23;31.67;;;21.60;99.90;;;;;;5013959;28;20421;-57
2023/09/13 06:17:25;;;;;;;41.67;31.60;;;21.60;99.90;;;;;;5013567;28;20402;-57
2023/09/13 06:19:51;;;;;;;38.13;31.30;;;21.60;99.90;;;;;;5014648;28;20417;-57
2023/09/13 06:22:17;;;;;;;39.00;31.30;;;21.60;99.90;;;;;;5012735;28;20418;-57
2023/09/13 06:24:44;;;;;;;36.27;29.57;;;21.60;99.90;;;;;;5013986;28;20429;-58
2023/09/13 06:27:10;;;;;;;42.30;31.00;;;21.60;99.90;;;;;;5011007;28;20513;-59
2023/09/13 06:29:36;;;;;;;40.03;32.93;;;21.60;99.90;;;;;;5013407;28;20508;-57
2023/09/13 06:32:04;;;;;;;38.37;30.57;;;21.60;99.90;;;;;;5025714;28;20459;-57
2023/09/13 06:34:30;;;;;;;40.20;31.37;;;21.50;99.90;;;;;;5033797;28;20171;-57
2023/09/13 06:36:56;;;;;;;38.73;31.40;;;21.50;99.90;;;;;;5018740;28;20410;-58
2023/09/13 06:39:22;;;;;;;36.77;29.90;;;21.50;99.90;;;;;;5012436;28;20584;-57
2023/09/13 06:41:48;;;;;;;39.37;29.73;;;21.50;99.90;;;;;;5013728;28;20883;-58
2023/09/13 06:44:14;;;;;;;37.60;29.30;;;21.40;99.90;;;;;;5013521;28;20183;-59
2023/09/13 06:46:41;;;;;;;38.50;29.30;;;21.40;99.90;;;;;;5014009;28;20515;-58
2023/09/13 06:49:07;;;;;;;40.50;31.27;;;21.40;99.90;;;;;;5014161;28;20402;-62
2023/09/13 06:51:33;;;;;;;40.97;32.77;;;21.40;99.90;;;;;;5020858;28;20820;-57
2023/09/13 06:53:59;;;;;;;40.57;30.30;;;21.40;99.90;;;;;;5026826;28;20179;-57
2023/09/13 06:56:25;;;;;;;39.50;31.13;;;21.40;99.90;;;;;;5013576;28;20717;-57
2023/09/13 06:58:52;;;;;;;39.10;32.17;;;21.40;99.90;;;;;;5010407;28;20468;-57
2023/09/13 07:01:19;;;;;;;41.37;30.40;;;21.40;99.90;;;;;;5013703;28;20453;-57
2023/09/13 07:03:45;;;;;;;43.40;31.27;;;21.40;99.90;;;;;;5013808;28;20425;-57
2023/09/13 07:06:13;;;;;;;37.97;31.27;;;21.30;99.90;;;;;;5009827;28;20495;-60
2023/09/13 07:08:39;;;;;;;39.67;32.10;;;21.30;99.90;;;;;;5013600;28;20570;-57
2023/09/13 07:11:05;;;;;;;43.27;32.33;;;21.30;99.90;;;;;;5014048;28;20194;-57
2023/09/13 07:13:31;;;;;;;44.10;31.70;;;21.30;99.90;;;;;;5012338;28;20749;-57
2023/09/13 07:15:57;;;;;;;42.63;31.67;;;21.20;99.90;;;;;;5013202;28;20426;-57
2023/09/13 07:18:24;;;;;;;37.03;29.77;;;21.20;99.90;;;;;;5012924;28;20542;-57
2023/09/13 07:20:49;;;;;;;37.97;30.63;;;21.30;99.90;;;;;;5015306;28;20682;-57
2023/09/13 07:23:17;;;;;;;33.93;28.67;;;21.20;99.90;;;;;;5031276;28;20432;-58
2023/09/13 07:25:47;;;;;;;36.97;29.70;;;21.20;99.90;;;;;;5026398;28;20418;-57
2023/09/13 07:28:13;;;;;;;37.87;28.90;;;21.20;99.90;;;;;;5009573;28;20186;-60
2023/09/13 07:30:39;;;;;;;37.60;28.90;;;21.20;99.90;;;;;;5013040;28;20776;-57
2023/09/13 07:33:04;;;;;;;41.37;30.80;;;21.20;99.90;;;;;;5013214;28;20207;-57
2023/09/13 07:35:30;;;;;;;34.70;28.30;;;21.30;99.90;;;;;;5011297;28;20185;-57
2023/09/13 07:37:56;;;;;;;36.87;26.80;;;21.30;99.90;;;;;;5010852;28;20222;-57
2023/09/13 07:40:21;;;;;;;35.20;26.90;;;21.30;99.90;;;;;;5010314;28;20217;-57
2023/09/13 07:42:47;;;;;;;36.00;27.20;;;21.30;99.90;;;;;;5014162;28;20186;-57
2023/09/13 07:45:13;;;;;;;32.17;27.63;;;21.40;99.90;;;;;;5012668;28;20175;-60
2023/09/13 07:47:39;;;;;;;33.47;28.77;;;21.40;99.90;;;;;;5011790;28;20179;-57
2023/09/13 07:50:05;;;;;;;33.50;28.33;;;21.50;99.90;;;;;;5012811;28;20202;-57
2023/09/13 07:52:31;;;;;;;35.93;29.10;;;21.50;99.90;;;;;;5012462;28;20277;-57
2023/09/13 07:54:56;;;;;;;31.87;26.70;;;21.50;99.90;;;;;;5011526;28;20406;-57
2023/09/13 07:57:22;;;;;;;32.83;26.20;;;21.50;99.90;;;;;;5012014;28;20175;-57
2023/09/13 07:59:50;;;;;;;31.83;26.43;;;21.50;99.90;;;;;;5013156;28;20219;-57
2023/09/13 08:02:15;;;;;;;33.63;27.00;;;21.50;99.90;;;;;;5012874;28;20496;-58
2023/09/13 08:04:41;;;;;;;30.87;27.47;;;21.50;99.90;;;;;;5012674;28;20175;-57
2023/09/13 08:07:07;;;;;;;29.90;25.77;;;21.50;99.90;;;;;;5012850;28;20237;-57
2023/09/13 08:09:34;;;;;;;32.13;28.63;;;21.50;99.90;;;;;;5011717;28;20594;-58
2023/09/13 08:12:00;;;;;;;34.57;26.60;;;21.50;99.90;;;;;;5012507;28;20454;-57
2023/09/13 08:14:25;;;;;;;34.83;26.70;;;21.60;99.90;;;;;;5011834;28;20411;-57
2023/09/13 08:16:51;;;;;;;33.27;26.73;;;21.60;99.90;;;;;;5009010;28;20182;-57
2023/09/13 08:19:17;;;;;;;29.53;25.77;;;21.60;99.90;;;;;;5009625;28;20230;-58
2023/09/13 08:21:43;;;;;;;35.07;27.17;;;21.60;99.90;;;;;;5013063;28;20175;-57
2023/09/13 08:24:08;;;;;;;28.97;24.47;;;21.60;99.90;;;;;;5012106;28;20210;-57
2023/09/13 08:26:37;;;;;;;27.50;23.07;;;21.60;99.90;;;;;;5012037;28;20174;-57
2023/09/13 08:29:03;;;;;;;28.47;22.60;;;21.60;99.90;;;;;;5012452;28;20500;-57
2023/09/13 08:31:29;;;;;;;24.50;20.43;;;21.60;99.90;;;;;;5011791;28;20674;-58
2023/09/13 08:33:55;;;;;;;25.80;21.33;;;21.60;99.90;;;;;;5012001;28;20410;-58
2023/09/13 08:36:21;;;;;;;26.37;21.50;;;21.70;99.90;;;;;;5011355;28;20410;-58
2023/09/13 08:38:46;;;;;;;22.70;20.20;;;21.60;99.90;;;;;;5012126;28;20245;-58
2023/09/13 08:41:15;;;;;;;25.70;21.07;;;21.60;99.90;;;;;;5013437;28;20182;-58
2023/09/13 08:43:42;;;;;;;24.10;21.57;;;21.60;99.90;;;;;;5011871;28;20186;-61
2023/09/13 08:46:09;;;;;;;24.97;22.37;;;21.60;99.90;;;;;;5011962;28;20778;-58
2023/09/13 08:48:37;;;;;;;22.43;20.03;;;21.70;99.90;;;;;;5008726;28;20485;-65
2023/09/13 08:51:04;;;;;;;23.57;21.03;;;21.70;99.90;;;;;;5027255;28;20425;-65
2023/09/13 08:53:32;;;;;;;28.00;22.20;;;21.70;99.90;;;;;;5010384;28;20446;-65
2023/09/13 08:55:59;;;;;;;25.37;21.73;;;21.80;99.90;;;;;;5012132;28;20398;-64
2023/09/13 08:58:26;;;;;;;21.17;18.87;;;21.80;99.90;;;;;;5009284;28;20418;-65
2023/09/13 09:00:53;;;;;;;23.13;20.13;;;21.80;99.90;;;;;;5010332;28;20425;-64
2023/09/13 09:03:23;;;;;;;23.43;21.03;;;21.80;99.90;;;;;;5011491;28;20453;-65
2023/09/13 09:05:50;;;;;;;23.03;19.73;;;21.80;99.90;;;;;;5011285;28;20455;-65
2023/09/13 09:08:18;;;;;;;22.00;19.80;;;21.90;99.90;;;;;;5011346;28;20410;-64
2023/09/13 09:10:45;;;;;;;22.73;19.90;;;21.90;99.90;;;;;;5012655;28;20414;-65
2023/09/13 09:13:12;;;;;;;22.90;19.40;;;22.00;99.90;;;;;;5012365;28;20453;-65
2023/09/13 09:15:39;;;;;;;21.97;19.47;;;22.00;99.90;;;;;;5012104;28;20943;-65
2023/09/13 09:18:09;;;;;;;20.20;17.90;;;22.00;99.90;;;;;;5012249;28;20403;-65
2023/09/13 09:20:39;;;;;;;21.30;17.90;;;22.10;99.90;;;;;;5011616;28;20691;-65
2023/09/13 09:23:07;;;;;;;21.13;18.83;;;22.10;99.90;;;;;;5012204;28;20406;-64
2023/09/13 09:25:33;;;;;;;19.70;17.60;;;22.10;99.90;;;;;;5010246;28;20417;-65
2023/09/13 09:28:02;;;;;;;19.90;17.40;;;22.10;99.90;;;;;;5010203;28;20426;-64
2023/09/13 09:30:32;;;;;;;20.33;16.63;;;22.20;99.90;;;;;;5003574;28;20183;-64
2023/09/13 09:33:05;;;;;;;20.30;17.73;;;22.10;99.90;;;;;;5015684;28;20537;-65
2023/09/13 09:35:32;;;;;;;17.63;15.67;;;22.20;99.90;;;;;;5015051;28;20421;-66
2023/09/13 09:37:58;;;;;;;20.17;14.97;;;22.20;99.90;;;;;;5015550;28;20462;-66
2023/09/13 09:40:23;;;;;;;17.40;15.20;;;22.30;99.90;;;;;;5014955;28;20496;-66
2023/09/13 09:42:54;;;;;;;18.67;16.77;;;22.30;99.90;;;;;;5015585;28;20186;-67
2023/09/13 09:45:23;;;;;;;19.23;17.00;;;22.40;99.90;;;;;;5015070;28;20425;-66
2023/09/13 09:47:52;;;;;;;19.27;16.80;;;22.60;99.90;;;;;;5015515;28;20418;-66
2023/09/13 09:50:18;;;;;;;17.67;15.73;;;22.70;99.90;;;;;;5014959;28;20398;-77
2023/09/13 09:52:51;;;;;;;17.73;16.00;;;22.80;99.90;;;;;;5015360;28;20501;-72
2023/09/13 09:55:21;;;;;;;26.93;24.13;;;22.90;99.90;;;;;;5015066;28;20763;-73
2023/09/13 09:57:53;;;;;;;32.10;28.83;;;23.20;99.90;;;;;;5012320;28;20406;-72
2023/09/13 10:00:19;;;;;;;23.00;20.67;;;23.40;99.90;;;;;;5014773;28;20413;-71
2023/09/13 10:02:45;;;;;;;17.57;15.87;;;23.50;99.90;;;;;;5013571;28;20753;-72
2023/09/13 10:05:17;;;;;;;26.70;23.83;;;23.60;99.90;;;;;;5014564;28;20182;-72
2023/09/13 10:07:56;;;;;;;17.77;16.10;;;23.60;99.90;;;;;;5014939;28;20445;-73
2023/09/13 10:10:35;;;;;;;16.67;15.10;;;23.80;99.90;;;;;;5014092;28;20772;-65
2023/09/13 10:13:03;;;;;;;15.90;14.20;;;23.90;99.90;;;;;;5015156;28;20449;-73
2023/09/13 10:15:29;;;;;;;16.03;14.53;;;24.00;99.90;;;;;;5014495;28;20406;-74
2023/09/13 10:17:57;;;;;;;19.03;17.20;;;23.90;99.90;;;;;;5015107;28;20532;-71
2023/09/13 10:20:24;;;;;;;16.87;15.27;;;23.90;99.90;;;;;;5014389;28;20175;-73
2023/09/13 10:22:54;;;;;;;17.37;15.53;;;23.90;99.90;;;;;;5014917;28;20418;-73
2023/09/13 10:25:21;;;;;;;17.00;15.37;;;24.10;99.90;;;;;;5014191;28;20406;-67
2023/09/13 10:27:50;;;;;;;16.53;15.03;;;24.30;99.90;;;;;;5013504;28;20778;-73
2023/09/13 10:30:21;;;;;;;16.90;15.20;;;24.30;99.90;;;;;;5005006;28;20429;-75
2023/09/13 10:32:52;;;;;;;16.90;15.30;;;24.50;99.90;;;;;;4995201;28;20458;-73
2023/09/13 10:35:20;;;;;;;14.77;13.43;;;24.50;99.90;;;;;;4994077;28;20422;-73
2023/09/13 10:38:02;;;;;;;15.80;14.17;;;24.50;99.90;;;;;;4994858;28;20501;-73
2023/09/13 10:40:33;;;;;;;81.43;73.27;;;24.50;99.90;;;;;;4993205;28;20478;-73
2023/09/13 10:43:01;;;;;;;21.03;19.00;;;24.50;99.90;;;;;;5010141;28;20423;-73
2023/09/13 10:45:27;;;;;;;29.83;26.60;;;24.50;99.90;;;;;;5010374;28;20448;-72
2023/09/13 10:47:55;;;;;;;17.50;15.80;;;24.40;99.90;;;;;;5014408;28;20406;-72
2023/09/13 10:50:21;;;;;;;21.07;19.10;;;24.30;99.90;;;;;;5014266;28;20451;-69
2023/09/13 10:52:49;;;;;;;16.10;14.10;;;24.20;99.90;;;;;;5014224;28;20492;-66
2023/09/13 10:55:16;;;;;;;19.90;17.83;;;24.10;99.90;;;;;;5014276;28;20414;-65
2023/09/13 10:57:42;;;;;;;29.50;25.73;;;24.00;99.90;;;;;;5013512;28;20775;-66
2023/09/13 11:00:12;;;;;;;22.00;19.90;;;23.90;99.90;;;;;;5014454;28;20413;-65
2023/09/13 11:02:45;;;;;;;18.33;16.23;;;23.80;99.90;;;;;;5013447;28;20414;-65
2023/09/13 11:05:13;;;;;;;14.73;13.33;;;23.70;99.90;;;;;;5012642;28;20901;-65
2023/09/13 11:07:48;;;;;;;13.00;11.53;;;23.60;99.90;;;;;;5013479;28;20418;-65
2023/09/13 11:10:18;;;;;;;9.17;8.37;;;23.70;99.90;;;;;;5014038;28;20397;-65
2023/09/13 11:12:53;;;;;;;8.37;7.67;;;23.60;99.90;;;;;;5010935;28;20454;-65
2023/09/13 11:15:24;;;;;;;6.57;6.07;;;23.70;99.90;;;;;;4996296;28;20779;-65
2023/09/13 11:17:53;;;;;;;5.83;5.43;;;23.80;99.90;;;;;;5013967;28;20454;-65
2023/09/13 11:20:38;;;;;;;6.20;5.80;;;23.60;99.90;;;;;;5008664;28;20427;-65
2023/09/13 11:23:14;;;;;;;6.00;5.60;;;23.40;99.90;;;;;;5013927;28;20399;-65
2023/09/13 11:25:46;;;;;;;5.63;5.30;;;23.30;99.90;;;;;;5013164;28;20516;-65
2023/09/13 11:28:38;;;;;;;5.37;5.07;;;23.20;99.90;;;;;;5012597;28;20501;-65
2023/09/13 11:31:06;;;;;;;4.90;4.60;;;23.30;99.90;;;;;;5007906;28;20460;-65
2023/09/13 11:33:54;;;;;;;5.27;4.87;;;23.30;99.90;;;;;;5011765;28;20446;-65
2023/09/13 11:36:22;;;;;;;4.43;4.13;;;23.30;99.90;;;;;;5013578;28;20403;-65
2023/09/13 11:38:53;;;;;;;4.60;4.40;;;23.30;99.90;;;;;;5011251;28;20972;-64
2023/09/13 11:41:19;;;;;;;5.27;4.90;;;23.20;99.90;;;;;;5012576;28;20536;-65
2023/09/13 11:43:45;;;;;;;5.20;4.90;;;23.20;99.90;;;;;;5012892;28;20556;-66
2023/09/13 11:46:14;;;;;;;5.27;4.90;;;23.10;99.90;;;;;;5012535;28;20410;-65
2023/09/13 11:48:40;;;;;;;5.30;5.00;;;23.10;99.90;;;;;;5012710;28;20409;-66
2023/09/13 11:51:14;;;;;;;8.00;7.50;;;23.10;99.90;;;;;;5011679;28;20444;-65
2023/09/13 11:53:41;;;;;;;6.03;5.63;;;23.00;99.90;;;;;;5012725;28;20557;-65
2023/09/13 11:56:08;;;;;;;5.97;5.60;;;23.00;99.90;;;;;;5013219;28;20406;-65
2023/09/13 11:58:36;;;;;;;7.43;6.93;;;23.10;99.90;;;;;;5011004;28;20464;-65
2023/09/13 12:01:07;;;;;;;5.17;4.87;;;23.00;99.90;;;;;;5011879;28;20417;-65
2023/09/13 12:03:41;;;;;;;5.00;4.60;;;23.00;99.90;;;;;;5011432;28;20754;-66
2023/09/13 12:06:08;;;;;;;6.13;5.10;;;23.00;99.90;;;;;;5011995;28;20401;-65
2023/09/13 12:08:38;;;;;;;5.87;5.37;;;23.00;99.90;;;;;;4994787;28;20452;-66
2023/09/13 12:11:06;;;;;;;7.10;6.60;;;23.00;99.90;;;;;;5013030;28;20417;-65
2023/09/13 12:13:45;;;;;;;7.83;7.30;;;23.10;99.90;;;;;;5012372;28;20457;-66
2023/09/13 12:16:11;;;;;;;6.73;6.33;;;23.10;99.90;;;;;;5013398;28;20414;-66
2023/09/13 12:18:38;;;;;;;8.20;7.70;;;23.00;99.90;;;;;;5012337;28;20398;-66
2023/09/13 12:21:06;;;;;;;10.60;9.90;;;22.90;99.90;;;;;;5012841;28;20465;-66
2023/09/13 12:23:37;;;;;;;10.50;9.80;;;23.00;99.90;;;;;;5012310;28;20422;-66
2023/09/13 12:26:05;;;;;;;12.63;11.63;;;23.10;99.90;;;;;;5013052;28;20413;-66
2023/09/13 12:28:35;;;;;;;65.17;58.57;;;23.10;99.90;;;;;;5010679;28;20399;-65
2023/09/13 12:31:09;;;;;;;15.13;14.00;;;23.10;99.90;;;;;;5012190;28;20419;-66